sensor_id;sensor_type;location;lat;lon;timestamp;temperature;humidity
81902;DHT22;71369;50.796;3.290;2023-08-08T00:00:06;14.10;89.60
81902;DHT22;71369;50.796;3.290;2023-08-08T00:02:32;14.10;89.40
81902;DHT22;71369;50.796;3.290;2023-08-08T00:04:57;14.00;89.90
81902;DHT22;71369;50.796;3.290;2023-08-08T00:07:23;14.00;90.10
81902;DHT22;71369;50.796;3.290;2023-08-08T00:09:49;14.00;90.10
81902;DHT22;71369;50.796;3.290;2023-08-08T00:12:15;14.00;90.30
81902;DHT22;71369;50.796;3.290;2023-08-08T00:14:40;14.10;90.20
81902;DHT22;71369;50.796;3.290;2023-08-08T00:17:06;14.00;90.20
81902;DHT22;71369;50.796;3.290;2023-08-08T00:19:32;14.10;90.20
81902;DHT22;71369;50.796;3.290;2023-08-08T00:21:57;14.10;90.20
81902;DHT22;71369;50.796;3.290;2023-08-08T00:24:23;14.10;90.30
81902;DHT22;71369;50.796;3.290;2023-08-08T00:26:49;14.10;90.30
81902;DHT22;71369;50.796;3.290;2023-08-08T00:29:14;14.10;90.30
81902;DHT22;71369;50.796;3.290;2023-08-08T00:31:40;14.10;90.50
81902;DHT22;71369;50.796;3.290;2023-08-08T00:34:06;14.10;90.50
81902;DHT22;71369;50.796;3.290;2023-08-08T00:36:32;14.10;90.50
81902;DHT22;71369;50.796;3.290;2023-08-08T00:38:57;14.00;90.50
81902;DHT22;71369;50.796;3.290;2023-08-08T00:41:23;14.00;90.60
81902;DHT22;71369;50.796;3.290;2023-08-08T00:43:49;14.00;90.50
81902;DHT22;71369;50.796;3.290;2023-08-08T00:46:20;14.00;90.60
81902;DHT22;71369;50.796;3.290;2023-08-08T00:48:46;14.00;90.60
81902;DHT22;71369;50.796;3.290;2023-08-08T00:51:13;14.00;90.70
81902;DHT22;71369;50.796;3.290;2023-08-08T00:53:39;14.00;90.70
81902;DHT22;71369;50.796;3.290;2023-08-08T00:56:05;14.00;90.60
81902;DHT22;71369;50.796;3.290;2023-08-08T00:58:31;14.00;90.70
81902;DHT22;71369;50.796;3.290;2023-08-08T01:00:57;13.90;91.10
81902;DHT22;71369;50.796;3.290;2023-08-08T01:03:26;13.90;91.10
81902;DHT22;71369;50.796;3.290;2023-08-08T01:06:05;13.80;91.20
81902;DHT22;71369;50.796;3.290;2023-08-08T01:08:42;13.80;91.30
81902;DHT22;71369;50.796;3.290;2023-08-08T01:11:09;13.80;91.30
81902;DHT22;71369;50.796;3.290;2023-08-08T01:13:36;13.80;91.30
81902;DHT22;71369;50.796;3.290;2023-08-08T01:16:03;13.80;91.50
81902;DHT22;71369;50.796;3.290;2023-08-08T01:18:32;13.80;91.60
81902;DHT22;71369;50.796;3.290;2023-08-08T01:20:58;13.70;91.50
81902;DHT22;71369;50.796;3.290;2023-08-08T01:23:41;13.80;91.50
81902;DHT22;71369;50.796;3.290;2023-08-08T01:26:07;13.70;91.50
81902;DHT22;71369;50.796;3.290;2023-08-08T01:28:34;13.70;91.50
81902;DHT22;71369;50.796;3.290;2023-08-08T01:31:00;13.70;91.70
81902;DHT22;71369;50.796;3.290;2023-08-08T01:33:26;13.70;91.70
81902;DHT22;71369;50.796;3.290;2023-08-08T01:36:00;13.70;91.70
81902;DHT22;71369;50.796;3.290;2023-08-08T01:38:34;13.70;91.90
81902;DHT22;71369;50.796;3.290;2023-08-08T01:41:02;13.60;91.90
81902;DHT22;71369;50.796;3.290;2023-08-08T01:43:30;13.70;91.90
81902;DHT22;71369;50.796;3.290;2023-08-08T01:45:57;13.60;92.00
81902;DHT22;71369;50.796;3.290;2023-08-08T01:48:23;13.60;91.90
81902;DHT22;71369;50.796;3.290;2023-08-08T01:50:49;13.60;91.70
81902;DHT22;71369;50.796;3.290;2023-08-08T01:53:15;13.60;91.90
81902;DHT22;71369;50.796;3.290;2023-08-08T01:55:40;13.60;91.90
81902;DHT22;71369;50.796;3.290;2023-08-08T01:58:06;13.60;92.10
81902;DHT22;71369;50.796;3.290;2023-08-08T02:00:32;13.50;92.20
81902;DHT22;71369;50.796;3.290;2023-08-08T02:02:57;13.50;92.40
81902;DHT22;71369;50.796;3.290;2023-08-08T02:05:23;13.50;92.30
81902;DHT22;71369;50.796;3.290;2023-08-08T02:07:49;13.50;92.40
81902;DHT22;71369;50.796;3.290;2023-08-08T02:10:15;13.50;92.40
81902;DHT22;71369;50.796;3.290;2023-08-08T02:12:41;13.50;92.50
81902;DHT22;71369;50.796;3.290;2023-08-08T02:15:07;13.50;92.50
81902;DHT22;71369;50.796;3.290;2023-08-08T02:17:33;13.60;92.50
81902;DHT22;71369;50.796;3.290;2023-08-08T02:19:58;13.60;92.50
81902;DHT22;71369;50.796;3.290;2023-08-08T02:22:25;13.60;92.40
81902;DHT22;71369;50.796;3.290;2023-08-08T02:24:50;13.60;92.50
81902;DHT22;71369;50.796;3.290;2023-08-08T02:27:16;13.50;92.70
81902;DHT22;71369;50.796;3.290;2023-08-08T02:29:42;13.40;92.60
81902;DHT22;71369;50.796;3.290;2023-08-08T02:32:08;13.50;92.80
81902;DHT22;71369;50.796;3.290;2023-08-08T02:34:33;13.50;92.70
81902;DHT22;71369;50.796;3.290;2023-08-08T02:36:59;13.60;92.50
81902;DHT22;71369;50.796;3.290;2023-08-08T02:39:25;13.60;92.60
81902;DHT22;71369;50.796;3.290;2023-08-08T02:41:50;13.60;92.50
81902;DHT22;71369;50.796;3.290;2023-08-08T02:44:16;13.60;92.20
81902;DHT22;71369;50.796;3.290;2023-08-08T02:46:42;13.60;92.40
81902;DHT22;71369;50.796;3.290;2023-08-08T02:49:08;13.60;92.60
81902;DHT22;71369;50.796;3.290;2023-08-08T02:51:33;13.60;92.40
81902;DHT22;71369;50.796;3.290;2023-08-08T02:53:59;13.50;92.70
81902;DHT22;71369;50.796;3.290;2023-08-08T02:56:25;13.50;92.60
81902;DHT22;71369;50.796;3.290;2023-08-08T02:58:50;13.60;92.50
81902;DHT22;71369;50.796;3.290;2023-08-08T03:01:17;13.60;92.60
81902;DHT22;71369;50.796;3.290;2023-08-08T03:03:43;13.60;92.70
81902;DHT22;71369;50.796;3.290;2023-08-08T03:06:08;13.50;92.80
81902;DHT22;71369;50.796;3.290;2023-08-08T03:08:34;13.50;92.60
81902;DHT22;71369;50.796;3.290;2023-08-08T03:11:00;13.60;92.80
81902;DHT22;71369;50.796;3.290;2023-08-08T03:13:26;13.60;92.60
81902;DHT22;71369;50.796;3.290;2023-08-08T03:15:52;13.60;92.50
81902;DHT22;71369;50.796;3.290;2023-08-08T03:18:17;13.70;92.20
81902;DHT22;71369;50.796;3.290;2023-08-08T03:20:43;13.60;92.20
81902;DHT22;71369;50.796;3.290;2023-08-08T03:23:09;13.60;92.20
81902;DHT22;71369;50.796;3.290;2023-08-08T03:25:35;13.50;92.40
81902;DHT22;71369;50.796;3.290;2023-08-08T03:28:00;13.50;92.30
81902;DHT22;71369;50.796;3.290;2023-08-08T03:30:26;13.60;92.30
81902;DHT22;71369;50.796;3.290;2023-08-08T03:32:52;13.60;92.00
81902;DHT22;71369;50.796;3.290;2023-08-08T03:35:18;13.50;92.20
81902;DHT22;71369;50.796;3.290;2023-08-08T03:37:43;13.50;92.40
81902;DHT22;71369;50.796;3.290;2023-08-08T03:40:09;13.50;92.20
81902;DHT22;71369;50.796;3.290;2023-08-08T03:42:35;13.50;92.20
81902;DHT22;71369;50.796;3.290;2023-08-08T03:45:01;13.40;92.10
81902;DHT22;71369;50.796;3.290;2023-08-08T03:47:27;13.40;92.20
81902;DHT22;71369;50.796;3.290;2023-08-08T03:49:55;13.50;92.30
81902;DHT22;71369;50.796;3.290;2023-08-08T03:52:23;13.40;92.60
81902;DHT22;71369;50.796;3.290;2023-08-08T03:54:49;13.50;92.60
81902;DHT22;71369;50.796;3.290;2023-08-08T03:57:15;13.40;92.90
81902;DHT22;71369;50.796;3.290;2023-08-08T03:59:40;13.40;92.80
81902;DHT22;71369;50.796;3.290;2023-08-08T04:02:06;13.40;92.80
81902;DHT22;71369;50.796;3.290;2023-08-08T04:04:32;13.40;92.70
81902;DHT22;71369;50.796;3.290;2023-08-08T04:06:57;13.40;92.60
81902;DHT22;71369;50.796;3.290;2023-08-08T04:09:23;13.40;92.80
81902;DHT22;71369;50.796;3.290;2023-08-08T04:11:49;13.40;92.90
81902;DHT22;71369;50.796;3.290;2023-08-08T04:14:15;13.40;92.60
81902;DHT22;71369;50.796;3.290;2023-08-08T04:16:40;13.40;92.40
81902;DHT22;71369;50.796;3.290;2023-08-08T04:19:06;13.50;92.70
81902;DHT22;71369;50.796;3.290;2023-08-08T04:21:32;13.50;92.60
81902;DHT22;71369;50.796;3.290;2023-08-08T04:23:58;13.50;92.50
81902;DHT22;71369;50.796;3.290;2023-08-08T04:26:25;13.50;92.60
81902;DHT22;71369;50.796;3.290;2023-08-08T04:28:50;13.50;92.70
81902;DHT22;71369;50.796;3.290;2023-08-08T04:31:16;13.60;92.60
81902;DHT22;71369;50.796;3.290;2023-08-08T04:33:42;13.50;92.70
81902;DHT22;71369;50.796;3.290;2023-08-08T04:36:08;13.60;92.60
81902;DHT22;71369;50.796;3.290;2023-08-08T04:38:33;13.60;92.60
81902;DHT22;71369;50.796;3.290;2023-08-08T04:40:59;13.50;92.70
81902;DHT22;71369;50.796;3.290;2023-08-08T04:43:25;13.50;92.90
81902;DHT22;71369;50.796;3.290;2023-08-08T04:45:53;13.60;93.10
81902;DHT22;71369;50.796;3.290;2023-08-08T04:48:19;13.60;93.00
81902;DHT22;71369;50.796;3.290;2023-08-08T04:50:46;13.60;93.00
81902;DHT22;71369;50.796;3.290;2023-08-08T04:53:12;13.60;92.90
81902;DHT22;71369;50.796;3.290;2023-08-08T04:55:38;13.70;92.80
81902;DHT22;71369;50.796;3.290;2023-08-08T04:58:04;13.80;92.90
81902;DHT22;71369;50.796;3.290;2023-08-08T05:00:30;13.80;92.80
81902;DHT22;71369;50.796;3.290;2023-08-08T05:02:56;13.80;92.70
81902;DHT22;71369;50.796;3.290;2023-08-08T05:05:22;13.80;92.70
81902;DHT22;71369;50.796;3.290;2023-08-08T05:07:48;13.80;92.60
81902;DHT22;71369;50.796;3.290;2023-08-08T05:10:13;13.90;92.50
81902;DHT22;71369;50.796;3.290;2023-08-08T05:12:39;13.90;92.40
81902;DHT22;71369;50.796;3.290;2023-08-08T05:15:05;13.90;92.40
81902;DHT22;71369;50.796;3.290;2023-08-08T05:17:31;14.00;92.30
81902;DHT22;71369;50.796;3.290;2023-08-08T05:19:57;14.10;92.00
81902;DHT22;71369;50.796;3.290;2023-08-08T05:22:23;14.10;92.00
81902;DHT22;71369;50.796;3.290;2023-08-08T05:24:49;14.10;92.40
81902;DHT22;71369;50.796;3.290;2023-08-08T05:27:15;14.00;92.10
81902;DHT22;71369;50.796;3.290;2023-08-08T05:29:40;14.10;92.10
81902;DHT22;71369;50.796;3.290;2023-08-08T05:32:07;14.20;91.90
81902;DHT22;71369;50.796;3.290;2023-08-08T05:34:33;14.10;91.80
81902;DHT22;71369;50.796;3.290;2023-08-08T05:36:59;14.20;91.90
81902;DHT22;71369;50.796;3.290;2023-08-08T05:39:25;14.30;91.90
81902;DHT22;71369;50.796;3.290;2023-08-08T05:41:52;14.40;91.70
81902;DHT22;71369;50.796;3.290;2023-08-08T05:44:18;14.40;91.60
81902;DHT22;71369;50.796;3.290;2023-08-08T05:46:43;14.50;91.60
81902;DHT22;71369;50.796;3.290;2023-08-08T05:49:09;14.50;91.50
81902;DHT22;71369;50.796;3.290;2023-08-08T05:51:35;14.60;91.50
81902;DHT22;71369;50.796;3.290;2023-08-08T05:54:01;14.60;91.50
81902;DHT22;71369;50.796;3.290;2023-08-08T05:56:37;14.60;91.50
81902;DHT22;71369;50.796;3.290;2023-08-08T05:59:03;14.80;91.40
81902;DHT22;71369;50.796;3.290;2023-08-08T06:01:29;15.00;91.00
81902;DHT22;71369;50.796;3.290;2023-08-08T06:03:55;15.00;90.80
81902;DHT22;71369;50.796;3.290;2023-08-08T06:06:21;15.20;90.70
81902;DHT22;71369;50.796;3.290;2023-08-08T06:08:47;15.30;90.30
81902;DHT22;71369;50.796;3.290;2023-08-08T06:11:12;15.40;90.10
81902;DHT22;71369;50.796;3.290;2023-08-08T06:13:38;15.60;90.00
81902;DHT22;71369;50.796;3.290;2023-08-08T06:16:04;15.90;89.70
81902;DHT22;71369;50.796;3.290;2023-08-08T06:18:33;16.30;87.80
81902;DHT22;71369;50.796;3.290;2023-08-08T06:20:59;16.60;85.20
81902;DHT22;71369;50.796;3.290;2023-08-08T06:23:25;17.00;84.80
81902;DHT22;71369;50.796;3.290;2023-08-08T06:25:50;17.10;82.90
81902;DHT22;71369;50.796;3.290;2023-08-08T06:28:16;17.20;83.10
81902;DHT22;71369;50.796;3.290;2023-08-08T06:30:42;17.40;81.90
81902;DHT22;71369;50.796;3.290;2023-08-08T06:33:07;17.50;79.70
81902;DHT22;71369;50.796;3.290;2023-08-08T06:35:34;17.30;79.30
81902;DHT22;71369;50.796;3.290;2023-08-08T06:38:00;17.10;80.50
81902;DHT22;71369;50.796;3.290;2023-08-08T06:40:26;16.90;81.40
81902;DHT22;71369;50.796;3.290;2023-08-08T06:42:52;17.00;82.60
81902;DHT22;71369;50.796;3.290;2023-08-08T06:45:18;17.30;80.90
81902;DHT22;71369;50.796;3.290;2023-08-08T06:47:44;17.60;78.80
81902;DHT22;71369;50.796;3.290;2023-08-08T06:50:11;17.60;79.20
81902;DHT22;71369;50.796;3.290;2023-08-08T06:52:37;18.00;78.30
81902;DHT22;71369;50.796;3.290;2023-08-08T06:55:03;18.60;77.60
81902;DHT22;71369;50.796;3.290;2023-08-08T06:57:32;19.10;74.50
81902;DHT22;71369;50.796;3.290;2023-08-08T06:59:59;18.80;72.20
81902;DHT22;71369;50.796;3.290;2023-08-08T07:02:24;19.10;73.50
81902;DHT22;71369;50.796;3.290;2023-08-08T07:04:50;19.20;73.20
81902;DHT22;71369;50.796;3.290;2023-08-08T07:07:16;19.20;71.50
81902;DHT22;71369;50.796;3.290;2023-08-08T07:09:42;19.20;71.10
81902;DHT22;71369;50.796;3.290;2023-08-08T07:12:08;19.50;69.80
81902;DHT22;71369;50.796;3.290;2023-08-08T07:14:33;19.50;69.10
81902;DHT22;71369;50.796;3.290;2023-08-08T07:16:59;19.70;68.00
81902;DHT22;71369;50.796;3.290;2023-08-08T07:19:25;19.90;68.00
81902;DHT22;71369;50.796;3.290;2023-08-08T07:21:51;20.10;65.30
81902;DHT22;71369;50.796;3.290;2023-08-08T07:24:17;20.50;66.20
81902;DHT22;71369;50.796;3.290;2023-08-08T07:26:42;20.80;64.60
81902;DHT22;71369;50.796;3.290;2023-08-08T07:29:08;21.00;63.50
81902;DHT22;71369;50.796;3.290;2023-08-08T07:31:34;20.80;63.50
81902;DHT22;71369;50.796;3.290;2023-08-08T07:34:00;21.30;61.60
81902;DHT22;71369;50.796;3.290;2023-08-08T07:36:25;21.10;61.40
81902;DHT22;71369;50.796;3.290;2023-08-08T07:38:51;21.30;60.50
81902;DHT22;71369;50.796;3.290;2023-08-08T07:41:17;21.20;60.10
81902;DHT22;71369;50.796;3.290;2023-08-08T07:43:43;21.00;61.50
81902;DHT22;71369;50.796;3.290;2023-08-08T07:46:22;21.50;60.60
81902;DHT22;71369;50.796;3.290;2023-08-08T07:48:48;22.00;58.30
81902;DHT22;71369;50.796;3.290;2023-08-08T07:51:14;22.20;58.90
81902;DHT22;71369;50.796;3.290;2023-08-08T07:53:40;22.20;57.50
81902;DHT22;71369;50.796;3.290;2023-08-08T07:56:05;22.20;57.50
81902;DHT22;71369;50.796;3.290;2023-08-08T07:58:34;22.10;58.00
81902;DHT22;71369;50.796;3.290;2023-08-08T08:01:00;21.80;59.30
81902;DHT22;71369;50.796;3.290;2023-08-08T08:03:29;22.10;58.10
81902;DHT22;71369;50.796;3.290;2023-08-08T08:05:54;22.90;56.80
81902;DHT22;71369;50.796;3.290;2023-08-08T08:08:20;23.20;57.40
81902;DHT22;71369;50.796;3.290;2023-08-08T08:10:47;22.80;55.80
81902;DHT22;71369;50.796;3.290;2023-08-08T08:13:14;21.80;57.40
81902;DHT22;71369;50.796;3.290;2023-08-08T08:15:40;21.10;59.70
81902;DHT22;71369;50.796;3.290;2023-08-08T08:18:05;21.40;59.40
81902;DHT22;71369;50.796;3.290;2023-08-08T08:20:31;21.80;58.90
81902;DHT22;71369;50.796;3.290;2023-08-08T08:22:57;22.40;57.50
81902;DHT22;71369;50.796;3.290;2023-08-08T08:25:23;22.90;55.60
81902;DHT22;71369;50.796;3.290;2023-08-08T08:27:49;22.30;56.30
81902;DHT22;71369;50.796;3.290;2023-08-08T08:30:14;22.30;55.10
81902;DHT22;71369;50.796;3.290;2023-08-08T08:32:41;22.30;56.80
81902;DHT22;71369;50.796;3.290;2023-08-08T08:35:07;22.60;54.50
81902;DHT22;71369;50.796;3.290;2023-08-08T08:37:33;23.30;53.80
81902;DHT22;71369;50.796;3.290;2023-08-08T08:40:00;24.50;51.20
81902;DHT22;71369;50.796;3.290;2023-08-08T08:42:29;24.40;48.50
81902;DHT22;71369;50.796;3.290;2023-08-08T08:44:58;24.20;50.40
81902;DHT22;71369;50.796;3.290;2023-08-08T08:47:25;23.20;52.00
81902;DHT22;71369;50.796;3.290;2023-08-08T08:49:52;22.80;53.40
81902;DHT22;71369;50.796;3.290;2023-08-08T08:52:18;23.60;50.80
81902;DHT22;71369;50.796;3.290;2023-08-08T08:54:44;23.90;52.30
81902;DHT22;71369;50.796;3.290;2023-08-08T08:57:10;24.30;49.00
81902;DHT22;71369;50.796;3.290;2023-08-08T08:59:37;23.70;50.30
81902;DHT22;71369;50.796;3.290;2023-08-08T09:02:03;23.20;52.30
81902;DHT22;71369;50.796;3.290;2023-08-08T09:04:29;22.60;53.10
81902;DHT22;71369;50.796;3.290;2023-08-08T09:06:56;22.70;55.50
81902;DHT22;71369;50.796;3.290;2023-08-08T09:09:22;22.80;51.40
81902;DHT22;71369;50.796;3.290;2023-08-08T09:11:50;22.00;52.40
81902;DHT22;71369;50.796;3.290;2023-08-08T09:14:21;21.90;54.10
81902;DHT22;71369;50.796;3.290;2023-08-08T09:16:47;22.00;53.40
81902;DHT22;71369;50.796;3.290;2023-08-08T09:19:14;22.10;53.50
81902;DHT22;71369;50.796;3.290;2023-08-08T09:21:40;21.60;54.20
81902;DHT22;71369;50.796;3.290;2023-08-08T09:24:06;21.30;54.90
81902;DHT22;71369;50.796;3.290;2023-08-08T09:26:33;20.80;55.70
81902;DHT22;71369;50.796;3.290;2023-08-08T09:29:00;20.50;57.10
81902;DHT22;71369;50.796;3.290;2023-08-08T09:31:26;20.30;58.30
81902;DHT22;71369;50.796;3.290;2023-08-08T09:33:59;20.40;59.70
81902;DHT22;71369;50.796;3.290;2023-08-08T09:36:25;20.40;58.50
81902;DHT22;71369;50.796;3.290;2023-08-08T09:38:52;20.30;59.70
81902;DHT22;71369;50.796;3.290;2023-08-08T09:41:19;20.30;58.80
81902;DHT22;71369;50.796;3.290;2023-08-08T09:43:47;20.70;58.20
81902;DHT22;71369;50.796;3.290;2023-08-08T09:46:13;21.40;57.80
81902;DHT22;71369;50.796;3.290;2023-08-08T09:48:41;22.80;53.30
81902;DHT22;71369;50.796;3.290;2023-08-08T09:51:08;24.00;52.30
81902;DHT22;71369;50.796;3.290;2023-08-08T09:53:35;25.10;49.70
81902;DHT22;71369;50.796;3.290;2023-08-08T09:56:04;26.00;46.40
81902;DHT22;71369;50.796;3.290;2023-08-08T09:58:30;24.70;45.60
81902;DHT22;71369;50.796;3.290;2023-08-08T10:00:57;24.00;47.30
81902;DHT22;71369;50.796;3.290;2023-08-08T10:03:23;23.90;48.20
81902;DHT22;71369;50.796;3.290;2023-08-08T10:05:49;23.70;48.10
81902;DHT22;71369;50.796;3.290;2023-08-08T10:08:15;24.00;49.10
81902;DHT22;71369;50.796;3.290;2023-08-08T10:10:44;25.40;44.90
81902;DHT22;71369;50.796;3.290;2023-08-08T10:13:10;25.20;42.60
81902;DHT22;71369;50.796;3.290;2023-08-08T10:15:40;24.60;44.70
81902;DHT22;71369;50.796;3.290;2023-08-08T10:18:06;23.70;47.90
81902;DHT22;71369;50.796;3.290;2023-08-08T10:20:32;24.90;47.50
81902;DHT22;71369;50.796;3.290;2023-08-08T10:23:02;25.60;44.10
81902;DHT22;71369;50.796;3.290;2023-08-08T10:25:30;25.90;43.80
81902;DHT22;71369;50.796;3.290;2023-08-08T10:28:10;25.90;43.10
81902;DHT22;71369;50.796;3.290;2023-08-08T10:30:48;25.90;40.70
81902;DHT22;71369;50.796;3.290;2023-08-08T10:33:22;24.90;42.80
81902;DHT22;71369;50.796;3.290;2023-08-08T10:35:58;24.30;45.20
81902;DHT22;71369;50.796;3.290;2023-08-08T10:38:26;24.10;46.80
81902;DHT22;71369;50.796;3.290;2023-08-08T10:40:57;24.10;45.00
81902;DHT22;71369;50.796;3.290;2023-08-08T10:43:27;24.10;45.20
81902;DHT22;71369;50.796;3.290;2023-08-08T10:46:00;24.60;44.60
81902;DHT22;71369;50.796;3.290;2023-08-08T10:48:27;24.90;42.70
81902;DHT22;71369;50.796;3.290;2023-08-08T10:50:57;24.70;43.00
81902;DHT22;71369;50.796;3.290;2023-08-08T10:53:28;24.00;44.60
81902;DHT22;71369;50.796;3.290;2023-08-08T10:56:02;23.20;46.40
81902;DHT22;71369;50.796;3.290;2023-08-08T10:58:36;22.60;47.60
81902;DHT22;71369;50.796;3.290;2023-08-08T11:01:03;22.40;47.80
81902;DHT22;71369;50.796;3.290;2023-08-08T11:03:34;21.80;49.20
81902;DHT22;71369;50.796;3.290;2023-08-08T11:06:01;21.70;52.10
81902;DHT22;71369;50.796;3.290;2023-08-08T11:08:30;21.60;50.90
81902;DHT22;71369;50.796;3.290;2023-08-08T11:10:57;21.60;52.90
81902;DHT22;71369;50.796;3.290;2023-08-08T11:13:22;21.40;52.30
81902;DHT22;71369;50.796;3.290;2023-08-08T11:15:48;21.30;52.10
81902;DHT22;71369;50.796;3.290;2023-08-08T11:18:14;21.00;53.00
81902;DHT22;71369;50.796;3.290;2023-08-08T11:20:40;20.90;54.00
81902;DHT22;71369;50.796;3.290;2023-08-08T11:23:06;20.90;53.90
81902;DHT22;71369;50.796;3.290;2023-08-08T11:25:36;20.30;53.90
81902;DHT22;71369;50.796;3.290;2023-08-08T11:28:02;20.10;54.90
81902;DHT22;71369;50.796;3.290;2023-08-08T11:30:32;20.00;56.70
81902;DHT22;71369;50.796;3.290;2023-08-08T11:33:00;20.10;55.70
81902;DHT22;71369;50.796;3.290;2023-08-08T11:35:26;20.30;56.00
81902;DHT22;71369;50.796;3.290;2023-08-08T11:37:57;20.30;55.60
81902;DHT22;71369;50.796;3.290;2023-08-08T11:40:25;20.70;56.40
81902;DHT22;71369;50.796;3.290;2023-08-08T11:42:51;20.80;53.80
81902;DHT22;71369;50.796;3.290;2023-08-08T11:45:18;21.30;54.20
81902;DHT22;71369;50.796;3.290;2023-08-08T11:47:47;21.90;54.10
81902;DHT22;71369;50.796;3.290;2023-08-08T11:50:13;22.00;49.40
81902;DHT22;71369;50.796;3.290;2023-08-08T11:52:44;22.40;49.50
81902;DHT22;71369;50.796;3.290;2023-08-08T11:55:11;23.20;49.40
81902;DHT22;71369;50.796;3.290;2023-08-08T11:57:38;23.90;46.90
81902;DHT22;71369;50.796;3.290;2023-08-08T12:00:08;23.80;46.50
81902;DHT22;71369;50.796;3.290;2023-08-08T12:02:37;23.90;46.40
81902;DHT22;71369;50.796;3.290;2023-08-08T12:05:09;23.50;46.10
81902;DHT22;71369;50.796;3.290;2023-08-08T12:07:38;23.40;48.10
81902;DHT22;71369;50.796;3.290;2023-08-08T12:10:17;23.50;46.80
81902;DHT22;71369;50.796;3.290;2023-08-08T12:12:43;23.50;47.90
81902;DHT22;71369;50.796;3.290;2023-08-08T12:15:10;23.50;47.70
81902;DHT22;71369;50.796;3.290;2023-08-08T12:17:39;23.30;48.20
81902;DHT22;71369;50.796;3.290;2023-08-08T12:20:06;23.10;48.50
81902;DHT22;71369;50.796;3.290;2023-08-08T12:22:33;23.30;48.40
81902;DHT22;71369;50.796;3.290;2023-08-08T12:24:59;23.10;49.10
81902;DHT22;71369;50.796;3.290;2023-08-08T12:27:25;23.40;49.60
81902;DHT22;71369;50.796;3.290;2023-08-08T12:29:51;23.70;47.00
81902;DHT22;71369;50.796;3.290;2023-08-08T12:32:20;23.40;47.50
81902;DHT22;71369;50.796;3.290;2023-08-08T12:34:49;23.60;47.90
81902;DHT22;71369;50.796;3.290;2023-08-08T12:37:15;22.60;49.80
81902;DHT22;71369;50.796;3.290;2023-08-08T12:39:41;21.60;52.10
81902;DHT22;71369;50.796;3.290;2023-08-08T12:42:07;21.20;53.80
81902;DHT22;71369;50.796;3.290;2023-08-08T12:44:33;20.60;55.00
81902;DHT22;71369;50.796;3.290;2023-08-08T12:46:58;20.50;55.30
81902;DHT22;71369;50.796;3.290;2023-08-08T12:49:24;20.40;57.10
81902;DHT22;71369;50.796;3.290;2023-08-08T12:51:51;20.50;59.70
81902;DHT22;71369;50.796;3.290;2023-08-08T12:54:17;20.50;57.40
81902;DHT22;71369;50.796;3.290;2023-08-08T12:56:43;20.50;58.00
81902;DHT22;71369;50.796;3.290;2023-08-08T12:59:09;20.50;57.90
81902;DHT22;71369;50.796;3.290;2023-08-08T13:01:35;20.70;58.30
81902;DHT22;71369;50.796;3.290;2023-08-08T13:04:01;20.60;58.20
81902;DHT22;71369;50.796;3.290;2023-08-08T13:06:26;20.50;58.20
81902;DHT22;71369;50.796;3.290;2023-08-08T13:08:52;20.40;58.30
81902;DHT22;71369;50.796;3.290;2023-08-08T13:11:18;20.50;58.50
81902;DHT22;71369;50.796;3.290;2023-08-08T13:13:44;21.10;58.60
81902;DHT22;71369;50.796;3.290;2023-08-08T13:16:09;21.50;56.30
81902;DHT22;71369;50.796;3.290;2023-08-08T13:18:36;21.80;55.90
81902;DHT22;71369;50.796;3.290;2023-08-08T13:21:02;22.10;56.00
81902;DHT22;71369;50.796;3.290;2023-08-08T13:23:28;22.10;55.90
81902;DHT22;71369;50.796;3.290;2023-08-08T13:25:54;22.30;56.10
81902;DHT22;71369;50.796;3.290;2023-08-08T13:28:20;22.20;55.40
81902;DHT22;71369;50.796;3.290;2023-08-08T13:30:45;22.30;55.80
81902;DHT22;71369;50.796;3.290;2023-08-08T13:33:11;22.10;56.00
81902;DHT22;71369;50.796;3.290;2023-08-08T13:35:37;22.10;55.60
81902;DHT22;71369;50.796;3.290;2023-08-08T13:38:03;22.30;56.10
81902;DHT22;71369;50.796;3.290;2023-08-08T13:40:29;22.60;55.10
81902;DHT22;71369;50.796;3.290;2023-08-08T13:42:54;23.10;54.00
81902;DHT22;71369;50.796;3.290;2023-08-08T13:45:20;23.00;52.60
81902;DHT22;71369;50.796;3.290;2023-08-08T13:47:47;23.00;53.80
81902;DHT22;71369;50.796;3.290;2023-08-08T13:50:13;22.50;54.30
81902;DHT22;71369;50.796;3.290;2023-08-08T13:52:40;22.20;55.60
81902;DHT22;71369;50.796;3.290;2023-08-08T13:55:07;22.10;56.30
81902;DHT22;71369;50.796;3.290;2023-08-08T13:57:34;22.50;56.80
81902;DHT22;71369;50.796;3.290;2023-08-08T14:00:01;22.20;56.40
81902;DHT22;71369;50.796;3.290;2023-08-08T14:02:28;22.10;57.80
81902;DHT22;71369;50.796;3.290;2023-08-08T14:04:55;21.70;59.50
81902;DHT22;71369;50.796;3.290;2023-08-08T14:07:21;21.30;61.70
81902;DHT22;71369;50.796;3.290;2023-08-08T14:09:47;20.80;63.90
81902;DHT22;71369;50.796;3.290;2023-08-08T14:12:12;20.20;66.60
81902;DHT22;71369;50.796;3.290;2023-08-08T14:14:38;19.80;67.20
81902;DHT22;71369;50.796;3.290;2023-08-08T14:17:04;19.50;69.40
81902;DHT22;71369;50.796;3.290;2023-08-08T14:19:30;19.20;70.80
81902;DHT22;71369;50.796;3.290;2023-08-08T14:21:56;19.10;71.90
81902;DHT22;71369;50.796;3.290;2023-08-08T14:24:22;19.00;74.90
81902;DHT22;71369;50.796;3.290;2023-08-08T14:26:47;18.80;74.20
81902;DHT22;71369;50.796;3.290;2023-08-08T14:29:13;18.30;75.60
81902;DHT22;71369;50.796;3.290;2023-08-08T14:31:39;18.10;78.90
81902;DHT22;71369;50.796;3.290;2023-08-08T14:34:05;18.10;80.70
81902;DHT22;71369;50.796;3.290;2023-08-08T14:36:30;18.00;80.30
81902;DHT22;71369;50.796;3.290;2023-08-08T14:38:56;18.10;80.50
81902;DHT22;71369;50.796;3.290;2023-08-08T14:41:22;18.10;78.00
81902;DHT22;71369;50.796;3.290;2023-08-08T14:43:48;18.10;79.10
81902;DHT22;71369;50.796;3.290;2023-08-08T14:46:13;18.20;79.70
81902;DHT22;71369;50.796;3.290;2023-08-08T14:48:39;18.20;79.30
81902;DHT22;71369;50.796;3.290;2023-08-08T14:51:05;18.20;79.00
81902;DHT22;71369;50.796;3.290;2023-08-08T14:53:31;18.10;80.40
81902;DHT22;71369;50.796;3.290;2023-08-08T14:55:56;18.20;79.10
81902;DHT22;71369;50.796;3.290;2023-08-08T14:58:25;18.20;80.80
81902;DHT22;71369;50.796;3.290;2023-08-08T15:00:50;18.20;81.10
81902;DHT22;71369;50.796;3.290;2023-08-08T15:03:17;18.10;82.10
81902;DHT22;71369;50.796;3.290;2023-08-08T15:05:44;18.10;83.10
81902;DHT22;71369;50.796;3.290;2023-08-08T15:08:11;18.20;82.30
81902;DHT22;71369;50.796;3.290;2023-08-08T15:10:37;18.20;82.20
81902;DHT22;71369;50.796;3.290;2023-08-08T15:13:02;18.10;85.60
81902;DHT22;71369;50.796;3.290;2023-08-08T15:15:28;18.20;84.30
81902;DHT22;71369;50.796;3.290;2023-08-08T15:17:55;18.30;85.90
81902;DHT22;71369;50.796;3.290;2023-08-08T15:20:21;18.40;84.20
81902;DHT22;71369;50.796;3.290;2023-08-08T15:22:47;18.40;83.80
81902;DHT22;71369;50.796;3.290;2023-08-08T15:25:12;18.40;81.80